Terminal Aerodrome Forecast
Issued by NWS Charleston, WV

Home | Current Version | Previous Version | Text Only | Print | Product List | Glossary On
Versions: 1 2 3 4 5 6 7 8 9 10 11 12 13 14 15 16 17 18 19 20 21 22 23 24 25 26 27 28 29 30 31 32
000
FTUS41 KRLX 031521 AAB
TAFBKW
TAF AMD
KBKW 031521Z 0315/0412 15005KT P6SM BKN012 BKN060
     FM031800 20003KT 5SM SHRA VCTS OVC015CB
      TEMPO 0318/0321 2SM TSRA
     FM040000 25005KT 6SM BR BKN010
     FM040600 24006KT 6SM BR BKN006=

USA.gov is the U.S. government's official web portal to all federal, state and local government web resources and services.